sensor_id;sensor_type;location;lat;lon;timestamp;temperature;humidity
56172;DHT22;42052;41.634;-0.946;2023-07-13T00:00:54;26.90;59.40
56172;DHT22;42052;41.634;-0.946;2023-07-13T00:03:21;26.90;59.30
56172;DHT22;42052;41.634;-0.946;2023-07-13T00:05:52;26.90;59.20
56172;DHT22;42052;41.634;-0.946;2023-07-13T00:08:22;26.90;59.40
56172;DHT22;42052;41.634;-0.946;2023-07-13T00:10:48;27.00;59.60
56172;DHT22;42052;41.634;-0.946;2023-07-13T00:13:18;27.00;59.50
56172;DHT22;42052;41.634;-0.946;2023-07-13T00:15:44;27.00;59.40
56172;DHT22;42052;41.634;-0.946;2023-07-13T00:18:09;27.00;59.30
56172;DHT22;42052;41.634;-0.946;2023-07-13T00:20:35;27.00;59.20
56172;DHT22;42052;41.634;-0.946;2023-07-13T00:23:01;27.00;59.20
56172;DHT22;42052;41.634;-0.946;2023-07-13T00:25:27;27.10;59.30
56172;DHT22;42052;41.634;-0.946;2023-07-13T00:27:56;27.10;59.00
56172;DHT22;42052;41.634;-0.946;2023-07-13T00:30:22;27.10;59.00
56172;DHT22;42052;41.634;-0.946;2023-07-13T00:32:48;27.10;59.30
56172;DHT22;42052;41.634;-0.946;2023-07-13T00:35:14;27.10;59.30
56172;DHT22;42052;41.634;-0.946;2023-07-13T00:37:41;27.10;59.50
56172;DHT22;42052;41.634;-0.946;2023-07-13T00:40:08;27.10;59.40
56172;DHT22;42052;41.634;-0.946;2023-07-13T00:42:35;27.10;59.30
56172;DHT22;42052;41.634;-0.946;2023-07-13T00:47:39;27.10;59.30
56172;DHT22;42052;41.634;-0.946;2023-07-13T00:50:09;27.10;59.20
56172;DHT22;42052;41.634;-0.946;2023-07-13T00:52:37;27.20;59.50
56172;DHT22;42052;41.634;-0.946;2023-07-13T00:55:05;27.10;59.40
56172;DHT22;42052;41.634;-0.946;2023-07-13T00:57:31;27.10;59.50
56172;DHT22;42052;41.634;-0.946;2023-07-13T01:00:00;27.20;59.70
56172;DHT22;42052;41.634;-0.946;2023-07-13T01:02:33;27.20;59.70
56172;DHT22;42052;41.634;-0.946;2023-07-13T01:04:59;27.20;59.90
56172;DHT22;42052;41.634;-0.946;2023-07-13T01:07:25;27.20;59.60
56172;DHT22;42052;41.634;-0.946;2023-07-13T01:09:51;27.20;59.80
56172;DHT22;42052;41.634;-0.946;2023-07-13T01:12:16;27.20;59.80
56172;DHT22;42052;41.634;-0.946;2023-07-13T01:14:43;27.20;59.70
56172;DHT22;42052;41.634;-0.946;2023-07-13T01:17:10;27.20;59.50
56172;DHT22;42052;41.634;-0.946;2023-07-13T01:19:42;27.20;59.70
56172;DHT22;42052;41.634;-0.946;2023-07-13T01:22:11;27.20;59.60
56172;DHT22;42052;41.634;-0.946;2023-07-13T01:24:40;27.20;59.70
56172;DHT22;42052;41.634;-0.946;2023-07-13T01:27:07;27.20;59.60
56172;DHT22;42052;41.634;-0.946;2023-07-13T01:29:34;27.20;59.60
56172;DHT22;42052;41.634;-0.946;2023-07-13T01:32:00;27.20;59.60
56172;DHT22;42052;41.634;-0.946;2023-07-13T01:34:27;27.20;59.50
56172;DHT22;42052;41.634;-0.946;2023-07-13T01:36:53;27.20;59.50
56172;DHT22;42052;41.634;-0.946;2023-07-13T01:39:21;27.30;59.70
56172;DHT22;42052;41.634;-0.946;2023-07-13T01:41:47;27.30;59.50
56172;DHT22;42052;41.634;-0.946;2023-07-13T01:44:13;27.20;59.40
56172;DHT22;42052;41.634;-0.946;2023-07-13T01:46:39;27.30;59.40
56172;DHT22;42052;41.634;-0.946;2023-07-13T01:49:05;27.20;59.20
56172;DHT22;42052;41.634;-0.946;2023-07-13T01:51:31;27.30;59.40
56172;DHT22;42052;41.634;-0.946;2023-07-13T01:53:56;27.20;59.30
56172;DHT22;42052;41.634;-0.946;2023-07-13T01:56:22;27.30;59.40
56172;DHT22;42052;41.634;-0.946;2023-07-13T01:58:49;27.30;59.30
56172;DHT22;42052;41.634;-0.946;2023-07-13T02:01:14;27.30;59.40
56172;DHT22;42052;41.634;-0.946;2023-07-13T02:03:40;27.30;59.40
56172;DHT22;42052;41.634;-0.946;2023-07-13T02:06:06;27.30;59.40
56172;DHT22;42052;41.634;-0.946;2023-07-13T02:08:33;27.30;59.40
56172;DHT22;42052;41.634;-0.946;2023-07-13T02:10:59;27.30;59.40
56172;DHT22;42052;41.634;-0.946;2023-07-13T02:13:25;27.30;59.50
56172;DHT22;42052;41.634;-0.946;2023-07-13T02:15:51;27.30;59.50
56172;DHT22;42052;41.634;-0.946;2023-07-13T02:18:17;27.30;59.50
56172;DHT22;42052;41.634;-0.946;2023-07-13T02:20:43;27.30;59.80
56172;DHT22;42052;41.634;-0.946;2023-07-13T02:23:10;27.30;59.80
56172;DHT22;42052;41.634;-0.946;2023-07-13T02:25:36;27.30;59.70
56172;DHT22;42052;41.634;-0.946;2023-07-13T02:28:02;27.20;59.70
56172;DHT22;42052;41.634;-0.946;2023-07-13T02:30:29;27.30;59.80
56172;DHT22;42052;41.634;-0.946;2023-07-13T02:32:56;27.30;59.70
56172;DHT22;42052;41.634;-0.946;2023-07-13T02:35:22;27.30;59.60
56172;DHT22;42052;41.634;-0.946;2023-07-13T02:37:48;27.30;59.70
56172;DHT22;42052;41.634;-0.946;2023-07-13T02:40:14;27.30;59.70
56172;DHT22;42052;41.634;-0.946;2023-07-13T02:42:40;27.30;59.70
56172;DHT22;42052;41.634;-0.946;2023-07-13T02:45:07;27.30;59.80
56172;DHT22;42052;41.634;-0.946;2023-07-13T02:47:33;27.30;59.80
56172;DHT22;42052;41.634;-0.946;2023-07-13T02:49:59;27.30;59.70
56172;DHT22;42052;41.634;-0.946;2023-07-13T02:52:26;27.30;59.70
56172;DHT22;42052;41.634;-0.946;2023-07-13T02:54:52;27.30;59.60
56172;DHT22;42052;41.634;-0.946;2023-07-13T02:57:17;27.30;59.50
56172;DHT22;42052;41.634;-0.946;2023-07-13T02:59:43;27.30;59.70
56172;DHT22;42052;41.634;-0.946;2023-07-13T03:02:09;27.30;59.60
56172;DHT22;42052;41.634;-0.946;2023-07-13T03:04:36;27.30;59.80
56172;DHT22;42052;41.634;-0.946;2023-07-13T03:07:03;27.30;59.70
56172;DHT22;42052;41.634;-0.946;2023-07-13T03:09:29;27.30;59.70
56172;DHT22;42052;41.634;-0.946;2023-07-13T03:11:55;27.30;59.80
56172;DHT22;42052;41.634;-0.946;2023-07-13T03:14:22;27.30;59.70
56172;DHT22;42052;41.634;-0.946;2023-07-13T03:16:48;27.30;59.80
56172;DHT22;42052;41.634;-0.946;2023-07-13T03:19:15;27.30;59.60
56172;DHT22;42052;41.634;-0.946;2023-07-13T03:21:41;27.30;59.70
56172;DHT22;42052;41.634;-0.946;2023-07-13T03:24:07;27.30;59.60
56172;DHT22;42052;41.634;-0.946;2023-07-13T03:26:32;27.30;59.60
56172;DHT22;42052;41.634;-0.946;2023-07-13T03:28:58;27.30;59.70
56172;DHT22;42052;41.634;-0.946;2023-07-13T03:31:29;27.30;59.70
56172;DHT22;42052;41.634;-0.946;2023-07-13T03:33:56;27.20;59.60
56172;DHT22;42052;41.634;-0.946;2023-07-13T03:36:27;27.30;59.60
56172;DHT22;42052;41.634;-0.946;2023-07-13T03:38:56;27.30;59.60
56172;DHT22;42052;41.634;-0.946;2023-07-13T03:41:23;27.30;59.70
56172;DHT22;42052;41.634;-0.946;2023-07-13T03:43:49;27.30;59.60
56172;DHT22;42052;41.634;-0.946;2023-07-13T03:46:16;27.30;59.50
56172;DHT22;42052;41.634;-0.946;2023-07-13T03:48:44;27.30;59.50
56172;DHT22;42052;41.634;-0.946;2023-07-13T03:51:12;27.30;59.50
56172;DHT22;42052;41.634;-0.946;2023-07-13T03:53:41;27.30;59.60
56172;DHT22;42052;41.634;-0.946;2023-07-13T03:56:07;27.30;59.50
56172;DHT22;42052;41.634;-0.946;2023-07-13T03:58:36;27.30;59.60
56172;DHT22;42052;41.634;-0.946;2023-07-13T04:01:03;27.30;59.50
56172;DHT22;42052;41.634;-0.946;2023-07-13T04:03:29;27.30;59.50
56172;DHT22;42052;41.634;-0.946;2023-07-13T04:05:59;27.30;59.70
56172;DHT22;42052;41.634;-0.946;2023-07-13T04:08:31;27.30;59.60
56172;DHT22;42052;41.634;-0.946;2023-07-13T04:10:58;27.30;59.60
56172;DHT22;42052;41.634;-0.946;2023-07-13T04:13:25;27.30;59.70
56172;DHT22;42052;41.634;-0.946;2023-07-13T04:15:51;27.30;59.70
56172;DHT22;42052;41.634;-0.946;2023-07-13T04:18:17;27.30;59.70
56172;DHT22;42052;41.634;-0.946;2023-07-13T04:20:43;27.30;59.70
56172;DHT22;42052;41.634;-0.946;2023-07-13T04:23:09;27.20;59.70
56172;DHT22;42052;41.634;-0.946;2023-07-13T04:25:35;27.30;59.80
56172;DHT22;42052;41.634;-0.946;2023-07-13T04:28:01;27.30;59.80
56172;DHT22;42052;41.634;-0.946;2023-07-13T04:30:27;27.30;59.90
56172;DHT22;42052;41.634;-0.946;2023-07-13T04:32:53;27.30;59.80
56172;DHT22;42052;41.634;-0.946;2023-07-13T04:35:19;27.20;59.70
56172;DHT22;42052;41.634;-0.946;2023-07-13T04:37:49;27.20;59.70
56172;DHT22;42052;41.634;-0.946;2023-07-13T04:40:19;27.30;59.70
56172;DHT22;42052;41.634;-0.946;2023-07-13T04:42:46;27.30;59.80
56172;DHT22;42052;41.634;-0.946;2023-07-13T04:45:13;27.20;59.60
56172;DHT22;42052;41.634;-0.946;2023-07-13T04:47:40;27.20;59.60
56172;DHT22;42052;41.634;-0.946;2023-07-13T04:50:07;27.30;59.70
56172;DHT22;42052;41.634;-0.946;2023-07-13T04:52:33;27.30;59.70
56172;DHT22;42052;41.634;-0.946;2023-07-13T04:54:59;27.20;59.70
56172;DHT22;42052;41.634;-0.946;2023-07-13T04:57:26;27.30;59.60
56172;DHT22;42052;41.634;-0.946;2023-07-13T04:59:52;27.30;59.50
56172;DHT22;42052;41.634;-0.946;2023-07-13T05:02:19;27.30;59.60
56172;DHT22;42052;41.634;-0.946;2023-07-13T05:04:49;27.20;59.40
56172;DHT22;42052;41.634;-0.946;2023-07-13T05:07:15;27.30;59.50
56172;DHT22;42052;41.634;-0.946;2023-07-13T05:09:40;27.30;59.50
56172;DHT22;42052;41.634;-0.946;2023-07-13T05:12:07;27.20;59.50
56172;DHT22;42052;41.634;-0.946;2023-07-13T05:14:33;27.20;59.60
56172;DHT22;42052;41.634;-0.946;2023-07-13T05:16:59;27.20;59.60
56172;DHT22;42052;41.634;-0.946;2023-07-13T05:19:26;27.30;59.60
56172;DHT22;42052;41.634;-0.946;2023-07-13T05:21:51;27.20;60.00
56172;DHT22;42052;41.634;-0.946;2023-07-13T05:24:18;27.20;61.50
56172;DHT22;42052;41.634;-0.946;2023-07-13T05:26:44;27.20;62.20
56172;DHT22;42052;41.634;-0.946;2023-07-13T05:29:09;27.30;63.30
56172;DHT22;42052;41.634;-0.946;2023-07-13T05:31:36;27.30;64.40
56172;DHT22;42052;41.634;-0.946;2023-07-13T05:34:02;27.30;65.00
56172;DHT22;42052;41.634;-0.946;2023-07-13T05:36:29;27.30;65.10
56172;DHT22;42052;41.634;-0.946;2023-07-13T05:38:54;27.40;64.60
56172;DHT22;42052;41.634;-0.946;2023-07-13T05:41:20;27.30;64.10
56172;DHT22;42052;41.634;-0.946;2023-07-13T05:43:46;27.30;63.70
56172;DHT22;42052;41.634;-0.946;2023-07-13T05:46:12;27.40;63.20
56172;DHT22;42052;41.634;-0.946;2023-07-13T05:48:37;27.30;62.60
56172;DHT22;42052;41.634;-0.946;2023-07-13T05:51:03;27.30;62.20
56172;DHT22;42052;41.634;-0.946;2023-07-13T05:53:29;27.30;61.90
56172;DHT22;42052;41.634;-0.946;2023-07-13T05:55:55;27.30;61.90
56172;DHT22;42052;41.634;-0.946;2023-07-13T05:58:21;27.30;62.30
56172;DHT22;42052;41.634;-0.946;2023-07-13T06:00:47;27.30;61.50
56172;DHT22;42052;41.634;-0.946;2023-07-13T06:03:14;27.30;61.60
56172;DHT22;42052;41.634;-0.946;2023-07-13T06:05:40;27.30;61.50
56172;DHT22;42052;41.634;-0.946;2023-07-13T06:08:07;27.30;61.30
56172;DHT22;42052;41.634;-0.946;2023-07-13T06:10:35;27.30;61.30
56172;DHT22;42052;41.634;-0.946;2023-07-13T06:13:01;27.20;61.00
56172;DHT22;42052;41.634;-0.946;2023-07-13T06:15:27;27.20;60.80
56172;DHT22;42052;41.634;-0.946;2023-07-13T06:17:52;27.30;60.90
56172;DHT22;42052;41.634;-0.946;2023-07-13T06:20:18;27.20;60.90
56172;DHT22;42052;41.634;-0.946;2023-07-13T06:22:44;27.20;60.90
56172;DHT22;42052;41.634;-0.946;2023-07-13T06:25:10;27.30;60.60
56172;DHT22;42052;41.634;-0.946;2023-07-13T06:27:35;27.20;60.50
56172;DHT22;42052;41.634;-0.946;2023-07-13T06:30:01;27.20;60.40
56172;DHT22;42052;41.634;-0.946;2023-07-13T06:32:27;27.20;60.50
56172;DHT22;42052;41.634;-0.946;2023-07-13T06:34:53;27.30;60.80
56172;DHT22;42052;41.634;-0.946;2023-07-13T06:37:19;27.20;60.60
56172;DHT22;42052;41.634;-0.946;2023-07-13T06:39:45;27.20;60.60
56172;DHT22;42052;41.634;-0.946;2023-07-13T06:42:10;27.20;60.60
56172;DHT22;42052;41.634;-0.946;2023-07-13T06:44:36;27.20;60.60
56172;DHT22;42052;41.634;-0.946;2023-07-13T06:47:02;27.20;60.50
56172;DHT22;42052;41.634;-0.946;2023-07-13T06:49:28;27.30;60.60
56172;DHT22;42052;41.634;-0.946;2023-07-13T06:51:54;27.20;60.60
56172;DHT22;42052;41.634;-0.946;2023-07-13T06:54:20;27.20;60.70
56172;DHT22;42052;41.634;-0.946;2023-07-13T06:56:45;27.30;60.70
56172;DHT22;42052;41.634;-0.946;2023-07-13T06:59:12;27.20;60.60
56172;DHT22;42052;41.634;-0.946;2023-07-13T07:01:38;27.30;61.90
56172;DHT22;42052;41.634;-0.946;2023-07-13T07:04:04;27.20;62.10
56172;DHT22;42052;41.634;-0.946;2023-07-13T07:06:30;27.30;63.60
56172;DHT22;42052;41.634;-0.946;2023-07-13T07:08:55;27.30;63.90
56172;DHT22;42052;41.634;-0.946;2023-07-13T07:11:23;27.30;63.60
56172;DHT22;42052;41.634;-0.946;2023-07-13T07:13:50;27.30;63.50
56172;DHT22;42052;41.634;-0.946;2023-07-13T07:16:17;27.30;63.20
56172;DHT22;42052;41.634;-0.946;2023-07-13T07:18:43;27.30;62.50
56172;DHT22;42052;41.634;-0.946;2023-07-13T07:21:09;27.30;62.40
56172;DHT22;42052;41.634;-0.946;2023-07-13T07:23:35;27.30;62.20
56172;DHT22;42052;41.634;-0.946;2023-07-13T07:26:01;27.30;62.10
56172;DHT22;42052;41.634;-0.946;2023-07-13T07:28:27;27.30;61.90
56172;DHT22;42052;41.634;-0.946;2023-07-13T07:30:55;27.30;61.70
56172;DHT22;42052;41.634;-0.946;2023-07-13T07:33:22;27.30;61.50
56172;DHT22;42052;41.634;-0.946;2023-07-13T07:35:48;27.30;61.40
56172;DHT22;42052;41.634;-0.946;2023-07-13T07:38:13;27.30;61.30
56172;DHT22;42052;41.634;-0.946;2023-07-13T07:40:40;27.30;61.20
56172;DHT22;42052;41.634;-0.946;2023-07-13T07:43:10;27.30;61.90
56172;DHT22;42052;41.634;-0.946;2023-07-13T07:45:37;27.30;61.30
56172;DHT22;42052;41.634;-0.946;2023-07-13T07:48:04;27.30;61.40
56172;DHT22;42052;41.634;-0.946;2023-07-13T07:50:31;27.30;61.40
56172;DHT22;42052;41.634;-0.946;2023-07-13T07:52:57;27.30;61.40
56172;DHT22;42052;41.634;-0.946;2023-07-13T07:55:23;27.30;62.20
56172;DHT22;42052;41.634;-0.946;2023-07-13T07:57:51;27.30;61.50
56172;DHT22;42052;41.634;-0.946;2023-07-13T08:00:17;27.30;61.40
56172;DHT22;42052;41.634;-0.946;2023-07-13T08:02:43;27.30;61.50
56172;DHT22;42052;41.634;-0.946;2023-07-13T08:05:10;27.30;61.40
56172;DHT22;42052;41.634;-0.946;2023-07-13T08:07:37;27.30;61.30
56172;DHT22;42052;41.634;-0.946;2023-07-13T08:10:04;27.30;61.20
56172;DHT22;42052;41.634;-0.946;2023-07-13T08:12:34;27.30;61.20
56172;DHT22;42052;41.634;-0.946;2023-07-13T08:15:00;27.30;61.30
56172;DHT22;42052;41.634;-0.946;2023-07-13T08:17:26;27.30;61.30
56172;DHT22;42052;41.634;-0.946;2023-07-13T08:19:52;27.30;61.30
56172;DHT22;42052;41.634;-0.946;2023-07-13T08:22:18;27.40;61.40
56172;DHT22;42052;41.634;-0.946;2023-07-13T08:24:44;27.40;61.50
56172;DHT22;42052;41.634;-0.946;2023-07-13T08:27:13;27.40;61.70
56172;DHT22;42052;41.634;-0.946;2023-07-13T08:29:39;27.40;61.80
56172;DHT22;42052;41.634;-0.946;2023-07-13T08:32:06;27.40;62.00
56172;DHT22;42052;41.634;-0.946;2023-07-13T08:34:35;27.40;62.20
56172;DHT22;42052;41.634;-0.946;2023-07-13T08:37:01;27.40;62.20
56172;DHT22;42052;41.634;-0.946;2023-07-13T08:39:29;27.40;62.20
56172;DHT22;42052;41.634;-0.946;2023-07-13T08:42:01;27.40;62.00
56172;DHT22;42052;41.634;-0.946;2023-07-13T08:47:10;27.40;61.80
56172;DHT22;42052;41.634;-0.946;2023-07-13T08:49:38;27.40;61.70
56172;DHT22;42052;41.634;-0.946;2023-07-13T08:52:22;27.40;61.60
56172;DHT22;42052;41.634;-0.946;2023-07-13T08:54:54;27.40;62.10
56172;DHT22;42052;41.634;-0.946;2023-07-13T08:57:27;27.40;61.40
56172;DHT22;42052;41.634;-0.946;2023-07-13T08:59:56;27.40;61.40
56172;DHT22;42052;41.634;-0.946;2023-07-13T09:11:18;27.50;60.90
56172;DHT22;42052;41.634;-0.946;2023-07-13T09:16:19;27.50;60.90
56172;DHT22;42052;41.634;-0.946;2023-07-13T09:18:51;27.50;60.70
56172;DHT22;42052;41.634;-0.946;2023-07-13T09:21:32;27.50;60.70
56172;DHT22;42052;41.634;-0.946;2023-07-13T09:24:24;27.50;60.70
56172;DHT22;42052;41.634;-0.946;2023-07-13T09:26:52;27.50;60.50
56172;DHT22;42052;41.634;-0.946;2023-07-13T09:29:28;27.50;60.30
56172;DHT22;42052;41.634;-0.946;2023-07-13T09:31:57;27.60;60.40
56172;DHT22;42052;41.634;-0.946;2023-07-13T09:34:25;27.50;60.30
56172;DHT22;42052;41.634;-0.946;2023-07-13T09:36:51;27.60;60.20
56172;DHT22;42052;41.634;-0.946;2023-07-13T09:39:37;27.50;60.20
56172;DHT22;42052;41.634;-0.946;2023-07-13T09:47:24;27.60;60.10
56172;DHT22;42052;41.634;-0.946;2023-07-13T09:50:04;27.60;60.00
56172;DHT22;42052;41.634;-0.946;2023-07-13T09:52:50;27.60;59.80
56172;DHT22;42052;41.634;-0.946;2023-07-13T09:55:29;27.60;59.60
56172;DHT22;42052;41.634;-0.946;2023-07-13T09:57:55;27.60;59.50
56172;DHT22;42052;41.634;-0.946;2023-07-13T10:00:29;27.60;59.40
56172;DHT22;42052;41.634;-0.946;2023-07-13T10:03:05;27.60;59.60
56172;DHT22;42052;41.634;-0.946;2023-07-13T10:05:43;27.60;59.40
56172;DHT22;42052;41.634;-0.946;2023-07-13T10:08:21;27.60;59.20
56172;DHT22;42052;41.634;-0.946;2023-07-13T10:10:52;27.60;59.10
56172;DHT22;42052;41.634;-0.946;2023-07-13T10:13:37;27.60;59.30
56172;DHT22;42052;41.634;-0.946;2023-07-13T10:16:04;27.60;59.20
56172;DHT22;42052;41.634;-0.946;2023-07-13T10:18:42;27.60;59.00
56172;DHT22;42052;41.634;-0.946;2023-07-13T10:21:13;27.60;59.20
56172;DHT22;42052;41.634;-0.946;2023-07-13T10:23:39;27.60;59.00
56172;DHT22;42052;41.634;-0.946;2023-07-13T10:26:12;27.60;59.10
56172;DHT22;42052;41.634;-0.946;2023-07-13T10:28:41;27.60;59.10
56172;DHT22;42052;41.634;-0.946;2023-07-13T10:31:12;27.70;59.10
56172;DHT22;42052;41.634;-0.946;2023-07-13T10:33:39;27.70;58.90
56172;DHT22;42052;41.634;-0.946;2023-07-13T10:36:32;27.70;58.90
56172;DHT22;42052;41.634;-0.946;2023-07-13T10:39:02;27.70;58.90
56172;DHT22;42052;41.634;-0.946;2023-07-13T10:41:32;27.70;58.70
56172;DHT22;42052;41.634;-0.946;2023-07-13T10:43:59;27.70;58.70
56172;DHT22;42052;41.634;-0.946;2023-07-13T10:46:27;27.70;58.80
56172;DHT22;42052;41.634;-0.946;2023-07-13T10:48:59;27.70;58.80
56172;DHT22;42052;41.634;-0.946;2023-07-13T10:51:27;27.70;58.70
56172;DHT22;42052;41.634;-0.946;2023-07-13T10:54:19;27.70;58.60
56172;DHT22;42052;41.634;-0.946;2023-07-13T10:57:06;27.70;58.50
56172;DHT22;42052;41.634;-0.946;2023-07-13T10:59:34;27.70;58.40
56172;DHT22;42052;41.634;-0.946;2023-07-13T11:04:45;27.70;58.20
56172;DHT22;42052;41.634;-0.946;2023-07-13T11:07:25;27.70;58.10
56172;DHT22;42052;41.634;-0.946;2023-07-13T11:09:53;27.70;57.90
56172;DHT22;42052;41.634;-0.946;2023-07-13T11:22:43;27.80;57.60
56172;DHT22;42052;41.634;-0.946;2023-07-13T11:25:31;27.80;57.60
56172;DHT22;42052;41.634;-0.946;2023-07-13T11:33:17;27.80;57.40
56172;DHT22;42052;41.634;-0.946;2023-07-13T11:38:19;27.80;57.20
56172;DHT22;42052;41.634;-0.946;2023-07-13T11:40:47;27.70;57.10
56172;DHT22;42052;41.634;-0.946;2023-07-13T11:43:15;27.80;57.00
56172;DHT22;42052;41.634;-0.946;2023-07-13T11:45:42;27.80;57.10
56172;DHT22;42052;41.634;-0.946;2023-07-13T11:48:23;27.80;57.00
56172;DHT22;42052;41.634;-0.946;2023-07-13T11:50:56;27.80;56.90
56172;DHT22;42052;41.634;-0.946;2023-07-13T11:53:26;27.80;56.80
56172;DHT22;42052;41.634;-0.946;2023-07-13T11:55:52;27.80;56.80
56172;DHT22;42052;41.634;-0.946;2023-07-13T11:58:22;27.80;56.90
56172;DHT22;42052;41.634;-0.946;2023-07-13T12:00:50;27.80;56.90
56172;DHT22;42052;41.634;-0.946;2023-07-13T12:03:21;27.80;56.60
56172;DHT22;42052;41.634;-0.946;2023-07-13T12:06:06;27.80;56.50
56172;DHT22;42052;41.634;-0.946;2023-07-13T12:08:45;27.80;56.40
56172;DHT22;42052;41.634;-0.946;2023-07-13T12:11:18;27.80;56.50
56172;DHT22;42052;41.634;-0.946;2023-07-13T12:13:44;27.80;56.50
56172;DHT22;42052;41.634;-0.946;2023-07-13T12:16:17;27.80;56.50
56172;DHT22;42052;41.634;-0.946;2023-07-13T12:18:46;27.80;56.60
56172;DHT22;42052;41.634;-0.946;2023-07-13T12:21:14;27.80;56.60
56172;DHT22;42052;41.634;-0.946;2023-07-13T12:23:44;27.80;56.70
56172;DHT22;42052;41.634;-0.946;2023-07-13T12:26:14;27.90;56.60
56172;DHT22;42052;41.634;-0.946;2023-07-13T12:28:50;27.90;56.60
56172;DHT22;42052;41.634;-0.946;2023-07-13T12:31:35;27.90;56.60
56172;DHT22;42052;41.634;-0.946;2023-07-13T12:34:14;27.90;56.50
56172;DHT22;42052;41.634;-0.946;2023-07-13T12:36:50;27.80;56.20
56172;DHT22;42052;41.634;-0.946;2023-07-13T12:39:21;27.80;56.10
56172;DHT22;42052;41.634;-0.946;2023-07-13T12:41:50;27.90;56.40
56172;DHT22;42052;41.634;-0.946;2023-07-13T12:44:24;27.90;56.40
56172;DHT22;42052;41.634;-0.946;2023-07-13T12:47:03;27.90;56.40
56172;DHT22;42052;41.634;-0.946;2023-07-13T12:49:32;27.90;56.30
56172;DHT22;42052;41.634;-0.946;2023-07-13T12:52:03;27.90;56.30
56172;DHT22;42052;41.634;-0.946;2023-07-13T12:54:29;27.90;56.20
56172;DHT22;42052;41.634;-0.946;2023-07-13T12:56:57;27.90;56.20
56172;DHT22;42052;41.634;-0.946;2023-07-13T12:59:25;27.90;56.10
56172;DHT22;42052;41.634;-0.946;2023-07-13T13:01:53;27.90;56.10
56172;DHT22;42052;41.634;-0.946;2023-07-13T13:04:19;27.90;56.00
56172;DHT22;42052;41.634;-0.946;2023-07-13T13:06:47;27.90;55.80
56172;DHT22;42052;41.634;-0.946;2023-07-13T13:09:15;28.00;55.90
56172;DHT22;42052;41.634;-0.946;2023-07-13T13:11:42;28.00;55.90
56172;DHT22;42052;41.634;-0.946;2023-07-13T13:14:08;27.90;55.70
56172;DHT22;42052;41.634;-0.946;2023-07-13T13:16:45;28.00;55.60
56172;DHT22;42052;41.634;-0.946;2023-07-13T13:19:29;28.00;55.50
56172;DHT22;42052;41.634;-0.946;2023-07-13T13:21:56;28.00;55.10
56172;DHT22;42052;41.634;-0.946;2023-07-13T13:24:25;28.00;55.10
56172;DHT22;42052;41.634;-0.946;2023-07-13T13:26:53;28.00;54.90
56172;DHT22;42052;41.634;-0.946;2023-07-13T13:29:21;28.00;54.70
56172;DHT22;42052;41.634;-0.946;2023-07-13T13:31:49;28.00;54.70
56172;DHT22;42052;41.634;-0.946;2023-07-13T13:34:16;28.00;54.80
56172;DHT22;42052;41.634;-0.946;2023-07-13T13:36:43;28.00;54.90
56172;DHT22;42052;41.634;-0.946;2023-07-13T13:39:41;28.00;54.90
56172;DHT22;42052;41.634;-0.946;2023-07-13T13:42:09;28.00;54.90
56172;DHT22;42052;41.634;-0.946;2023-07-13T13:44:35;28.00;54.80
56172;DHT22;42052;41.634;-0.946;2023-07-13T13:47:01;28.00;54.90
56172;DHT22;42052;41.634;-0.946;2023-07-13T13:49:29;28.00;54.90
56172;DHT22;42052;41.634;-0.946;2023-07-13T13:51:55;28.00;54.90
56172;DHT22;42052;41.634;-0.946;2023-07-13T13:54:23;28.00;54.90
56172;DHT22;42052;41.634;-0.946;2023-07-13T13:56:51;28.00;54.90
56172;DHT22;42052;41.634;-0.946;2023-07-13T13:59:18;28.00;55.10
56172;DHT22;42052;41.634;-0.946;2023-07-13T14:01:45;28.00;54.70
56172;DHT22;42052;41.634;-0.946;2023-07-13T14:04:18;28.00;54.70
56172;DHT22;42052;41.634;-0.946;2023-07-13T14:06:44;28.00;54.80
56172;DHT22;42052;41.634;-0.946;2023-07-13T14:09:13;28.00;54.80
56172;DHT22;42052;41.634;-0.946;2023-07-13T14:11:41;28.00;54.60
56172;DHT22;42052;41.634;-0.946;2023-07-13T14:14:20;28.00;54.70
56172;DHT22;42052;41.634;-0.946;2023-07-13T14:16:47;28.00;54.70
56172;DHT22;42052;41.634;-0.946;2023-07-13T14:19:19;28.00;54.60
56172;DHT22;42052;41.634;-0.946;2023-07-13T14:21:44;28.00;54.70
56172;DHT22;42052;41.634;-0.946;2023-07-13T14:24:10;28.00;54.70
56172;DHT22;42052;41.634;-0.946;2023-07-13T14:26:40;28.00;54.70
56172;DHT22;42052;41.634;-0.946;2023-07-13T14:29:16;28.10;54.60
56172;DHT22;42052;41.634;-0.946;2023-07-13T14:31:43;28.10;54.80
56172;DHT22;42052;41.634;-0.946;2023-07-13T14:34:13;28.00;54.60
56172;DHT22;42052;41.634;-0.946;2023-07-13T14:36:45;28.00;54.50
56172;DHT22;42052;41.634;-0.946;2023-07-13T14:39:16;28.10;54.70
56172;DHT22;42052;41.634;-0.946;2023-07-13T14:41:43;28.10;54.90
56172;DHT22;42052;41.634;-0.946;2023-07-13T14:44:12;28.10;54.40
56172;DHT22;42052;41.634;-0.946;2023-07-13T14:46:38;28.10;54.20
56172;DHT22;42052;41.634;-0.946;2023-07-13T14:51:35;28.00;54.10
56172;DHT22;42052;41.634;-0.946;2023-07-13T14:54:05;28.00;54.00
56172;DHT22;42052;41.634;-0.946;2023-07-13T14:56:31;28.10;53.80
56172;DHT22;42052;41.634;-0.946;2023-07-13T14:58:57;28.00;53.70
56172;DHT22;42052;41.634;-0.946;2023-07-13T15:01:23;28.00;53.60
56172;DHT22;42052;41.634;-0.946;2023-07-13T15:03:51;28.10;53.50
56172;DHT22;42052;41.634;-0.946;2023-07-13T15:06:18;28.10;53.60
56172;DHT22;42052;41.634;-0.946;2023-07-13T15:08:44;28.10;53.70
56172;DHT22;42052;41.634;-0.946;2023-07-13T15:11:10;28.10;53.60
56172;DHT22;42052;41.634;-0.946;2023-07-13T15:13:41;28.10;53.40
56172;DHT22;42052;41.634;-0.946;2023-07-13T15:16:19;28.10;53.50
56172;DHT22;42052;41.634;-0.946;2023-07-13T15:18:47;28.10;53.40
56172;DHT22;42052;41.634;-0.946;2023-07-13T15:21:31;28.10;53.30
56172;DHT22;42052;41.634;-0.946;2023-07-13T15:24:00;28.10;53.20
56172;DHT22;42052;41.634;-0.946;2023-07-13T15:26:26;28.10;53.20
56172;DHT22;42052;41.634;-0.946;2023-07-13T15:28:52;28.10;53.20
56172;DHT22;42052;41.634;-0.946;2023-07-13T15:31:21;28.10;53.10
56172;DHT22;42052;41.634;-0.946;2023-07-13T15:33:48;28.10;52.90
56172;DHT22;42052;41.634;-0.946;2023-07-13T15:36:16;28.10;53.00
56172;DHT22;42052;41.634;-0.946;2023-07-13T15:38:43;28.10;52.90
56172;DHT22;42052;41.634;-0.946;2023-07-13T15:41:17;28.10;52.90
56172;DHT22;42052;41.634;-0.946;2023-07-13T15:43:43;28.10;53.00
56172;DHT22;42052;41.634;-0.946;2023-07-13T15:46:09;28.10;52.90
56172;DHT22;42052;41.634;-0.946;2023-07-13T15:48:36;28.10;52.90
56172;DHT22;42052;41.634;-0.946;2023-07-13T15:51:03;28.10;52.80
56172;DHT22;42052;41.634;-0.946;2023-07-13T15:53:33;28.10;52.70
56172;DHT22;42052;41.634;-0.946;2023-07-13T15:56:02;28.20;52.80
56172;DHT22;42052;41.634;-0.946;2023-07-13T15:58:37;28.10;52.80
56172;DHT22;42052;41.634;-0.946;2023-07-13T16:01:03;28.10;52.80
56172;DHT22;42052;41.634;-0.946;2023-07-13T16:03:29;28.10;52.70
56172;DHT22;42052;41.634;-0.946;2023-07-13T16:05:55;28.10;52.60
56172;DHT22;42052;41.634;-0.946;2023-07-13T16:08:27;28.10;52.60